createdAt,value
2019-01-31T00:02:27.232Z,45.80
2019-01-31T00:05:22.380Z,44.17
2019-01-31T00:08:14.473Z,50.80
2019-01-31T00:10:51.123Z,47.20
2019-01-31T00:14:15.494Z,51.27
2019-01-31T00:17:01.804Z,44.27
2019-01-31T00:19:41.823Z,47.87
2019-01-31T00:22:30.767Z,46.77
2019-01-31T00:25:30.658Z,47.80
2019-01-31T00:28:25.657Z,43.50
2019-01-31T00:31:05.538Z,47.40
2019-01-31T00:33:42.443Z,43.90
2019-01-31T00:36:34.690Z,45.50
2019-01-31T00:39:14.705Z,44.87
2019-01-31T00:41:54.707Z,42.07
2019-01-31T00:44:31.908Z,41.13
2019-01-31T00:47:29.990Z,48.57
2019-01-31T00:50:31.162Z,46.20
2019-01-31T00:53:38.763Z,43.63
2019-01-31T00:56:46.258Z,41.93
2019-01-31T00:59:50.245Z,43.83
2019-01-31T01:02:36.111Z,46.67
2019-01-31T01:05:36.001Z,39.17
2019-01-31T01:08:22.210Z,46.07
2019-01-31T01:11:16.055Z,44.90
2019-01-31T01:13:59.000Z,45.73
2019-01-31T01:16:54.068Z,43.90
2019-01-31T01:19:50.752Z,50.40
2019-01-31T01:22:36.776Z,47.93
2019-01-31T01:25:42.688Z,49.47
2019-01-31T01:28:43.812Z,44.70
2019-01-31T01:31:35.957Z,42.20
2019-01-31T01:34:41.666Z,51.97
2019-01-31T01:37:15.824Z,47.03
2019-01-31T01:40:07.974Z,49.97
2019-01-31T01:43:00.230Z,48.63
2019-01-31T01:46:01.591Z,46.73
2019-01-31T01:48:44.044Z,48.10
2019-01-31T01:51:33.130Z,51.80
2019-01-31T01:54:32.847Z,50.30
2019-01-31T01:57:58.858Z,47.10
2019-01-31T02:00:50.865Z,44.93
2019-01-31T02:03:54.647Z,52.23
2019-01-31T02:06:34.221Z,45.77
2019-01-31T02:09:30.237Z,49.87
2019-01-31T02:12:35.312Z,46.70
2019-01-31T02:15:30.590Z,40.00
2019-01-31T02:18:10.141Z,45.63
2019-01-31T02:21:09.929Z,45.40
2019-01-31T02:23:55.858Z,56.03
2019-01-31T02:26:52.553Z,50.60
2019-01-31T02:29:55.618Z,48.27
2019-01-31T02:32:47.810Z,45.03
2019-01-31T02:35:36.660Z,52.57
2019-01-31T02:38:39.324Z,47.93
2019-01-31T02:41:48.519Z,51.53
2019-01-31T02:44:31.809Z,49.67
2019-01-31T02:47:11.461Z,44.63
2019-01-31T02:50:06.556Z,52.40
2019-01-31T02:52:58.242Z,42.40
2019-01-31T02:55:37.582Z,49.60
2019-01-31T02:58:29.377Z,47.97
2019-01-31T03:01:18.524Z,58.40
2019-01-31T03:04:04.217Z,51.80
2019-01-31T03:07:08.406Z,47.80
2019-01-31T03:09:55.002Z,45.23
2019-01-31T03:12:46.519Z,46.90
2019-01-31T03:15:23.642Z,48.60
2019-01-31T03:18:19.183Z,46.57
2019-01-31T03:21:13.905Z,49.47
2019-01-31T03:24:25.862Z,45.00
2019-01-31T03:27:39.669Z,46.63
2019-01-31T03:30:59.271Z,48.20
2019-01-31T03:33:39.134Z,56.00
2019-01-31T03:36:44.604Z,45.13
2019-01-31T03:39:21.652Z,45.27
2019-01-31T03:42:12.589Z,43.67
2019-01-31T03:45:01.492Z,48.50
2019-01-31T03:47:47.718Z,47.30
2019-01-31T03:50:33.952Z,46.17
2019-01-31T03:53:30.171Z,53.67
2019-01-31T03:56:16.460Z,61.00
2019-01-31T03:58:53.655Z,58.60
2019-01-31T04:01:54.707Z,54.57
2019-01-31T04:04:40.619Z,64.03
2019-01-31T04:07:10.107Z,55.57
2019-01-31T04:09:39.614Z,62.50
2019-01-31T04:12:09.109Z,55.23
2019-01-31T04:14:38.593Z,55.20
2019-01-31T04:17:08.102Z,56.50
2019-01-31T04:19:37.602Z,60.37
2019-01-31T04:22:07.257Z,54.20
2019-01-31T04:24:36.786Z,58.60
2019-01-31T04:27:06.265Z,55.27
2019-01-31T04:29:35.788Z,51.23
2019-01-31T04:32:05.329Z,58.00
2019-01-31T04:34:34.806Z,62.57
2019-01-31T04:37:04.319Z,63.50
2019-01-31T04:39:33.822Z,56.23
2019-01-31T04:42:03.303Z,59.97
2019-01-31T04:44:32.783Z,49.40
2019-01-31T04:47:02.298Z,56.57
2019-01-31T04:49:31.806Z,64.97
2019-01-31T04:52:01.279Z,59.27
2019-01-31T04:54:30.794Z,58.60
2019-01-31T04:57:00.255Z,57.07
2019-01-31T04:59:29.741Z,63.73
2019-01-31T05:01:59.583Z,58.77
2019-01-31T05:04:29.081Z,61.70
2019-01-31T05:06:58.590Z,61.67
2019-01-31T05:09:28.114Z,51.73
2019-01-31T05:11:57.597Z,63.40
2019-01-31T05:14:27.082Z,45.03
2019-01-31T05:16:56.594Z,51.73
2019-01-31T05:19:26.102Z,51.30
2019-01-31T05:21:55.586Z,44.70
2019-01-31T05:24:25.138Z,50.13
2019-01-31T05:26:54.634Z,52.73
2019-01-31T05:29:24.211Z,50.13
2019-01-31T05:31:53.696Z,50.93
2019-01-31T05:34:23.184Z,54.17
2019-01-31T05:36:52.602Z,59.40
2019-01-31T05:39:22.084Z,51.47
2019-01-31T05:41:51.586Z,53.27
2019-01-31T05:44:21.057Z,51.50
2019-01-31T05:46:50.540Z,53.20
2019-01-31T05:49:20.336Z,62.70
2019-01-31T05:51:49.809Z,74.77
2019-01-31T05:54:19.222Z,63.60
2019-01-31T05:56:48.728Z,65.07
2019-01-31T05:59:18.221Z,47.47
2019-01-31T06:01:47.878Z,56.50
2019-01-31T06:04:17.372Z,61.20
2019-01-31T06:06:46.857Z,67.30
2019-01-31T06:09:16.356Z,58.30
2019-01-31T06:11:45.869Z,67.40
2019-01-31T06:14:15.357Z,66.70
2019-01-31T06:16:44.828Z,55.43
2019-01-31T06:19:14.339Z,65.37
2019-01-31T06:21:43.814Z,58.27
2019-01-31T06:24:13.288Z,55.53
2019-01-31T06:26:42.800Z,57.37
2019-01-31T06:29:12.287Z,54.70
2019-01-31T06:32:01.215Z,54.80
2019-01-31T06:34:30.722Z,52.83
2019-01-31T06:37:00.203Z,49.20
2019-01-31T06:39:29.708Z,60.80
2019-01-31T06:41:59.291Z,56.23
2019-01-31T06:44:28.777Z,55.13
2019-01-31T06:46:58.296Z,52.70
2019-01-31T06:49:27.791Z,51.33
2019-01-31T06:51:57.397Z,52.10
2019-01-31T06:54:26.901Z,56.40
2019-01-31T06:56:56.375Z,49.80
2019-01-31T06:59:25.853Z,55.70
2019-01-31T07:01:55.441Z,43.03
2019-01-31T07:04:24.921Z,44.03
2019-01-31T07:06:54.430Z,57.10
2019-01-31T07:09:23.940Z,50.00
2019-01-31T07:11:53.347Z,44.70
2019-01-31T07:14:22.749Z,46.27
2019-01-31T07:16:52.214Z,49.03
2019-01-31T07:19:21.686Z,59.20
2019-01-31T07:21:51.168Z,73.23
2019-01-31T07:24:20.672Z,74.77
2019-01-31T07:26:50.173Z,66.73
2019-01-31T07:29:19.664Z,82.47
2019-01-31T07:31:49.188Z,73.50
2019-01-31T07:34:18.691Z,75.23
2019-01-31T07:36:48.563Z,61.37
2019-01-31T07:39:18.069Z,77.63
2019-01-31T07:41:47.562Z,58.97
2019-01-31T07:44:17.148Z,62.20
2019-01-31T07:46:46.654Z,67.57
2019-01-31T07:49:16.135Z,69.90
2019-01-31T07:51:45.613Z,72.60
2019-01-31T07:54:15.136Z,62.33
2019-01-31T07:56:44.616Z,65.87
2019-01-31T07:59:14.122Z,67.17
2019-01-31T08:01:43.724Z,68.30
2019-01-31T08:04:13.229Z,55.07
2019-01-31T08:06:42.699Z,66.27
2019-01-31T08:09:12.276Z,62.50
2019-01-31T08:11:52.084Z,53.87
2019-01-31T08:14:12.901Z,52.23
2019-01-31T08:16:42.423Z,54.40
2019-01-31T08:19:11.941Z,65.40
2019-01-31T08:21:41.445Z,51.53
2019-01-31T08:24:10.949Z,49.53
2019-01-31T08:26:40.470Z,59.63
2019-01-31T08:29:09.968Z,48.03
2019-01-31T08:31:39.460Z,56.33
2019-01-31T08:34:08.943Z,54.83
2019-01-31T08:36:38.420Z,55.17
2019-01-31T08:39:08.713Z,54.13
2019-01-31T08:41:38.209Z,56.70
2019-01-31T08:44:07.689Z,53.10
2019-01-31T08:46:37.175Z,57.90
2019-01-31T08:49:06.652Z,51.27
2019-01-31T08:51:36.126Z,54.53
2019-01-31T08:54:05.666Z,50.30
2019-01-31T08:56:35.146Z,58.50
2019-01-31T08:59:04.794Z,60.10
2019-01-31T09:01:34.282Z,57.63
2019-01-31T09:04:03.767Z,53.83
2019-01-31T09:06:33.274Z,56.37
2019-01-31T09:09:03.050Z,51.17
2019-01-31T09:11:32.541Z,58.67
2019-01-31T09:14:02.255Z,58.90
2019-01-31T09:16:31.798Z,57.13
2019-01-31T09:19:03.996Z,55.23
2019-01-31T09:21:37.215Z,54.63
2019-01-31T09:24:44.767Z,51.13
2019-01-31T09:27:27.574Z,53.77
2019-01-31T09:30:21.571Z,51.03
2019-01-31T09:33:04.837Z,43.87
2019-01-31T09:35:44.721Z,47.27
2019-01-31T09:38:33.479Z,52.70
2019-01-31T09:41:19.287Z,49.03
2019-01-31T09:44:14.791Z,57.67
2019-01-31T09:47:21.017Z,51.10
2019-01-31T09:50:30.253Z,47.10
2019-01-31T09:53:32.852Z,49.73
2019-01-31T09:56:25.175Z,52.87
2019-01-31T09:59:08.149Z,52.80
2019-01-31T10:01:58.785Z,50.83
2019-01-31T10:04:47.451Z,44.67
2019-01-31T10:07:47.444Z,54.77
2019-01-31T10:10:27.382Z,45.47
2019-01-31T10:13:27.212Z,49.27
2019-01-31T10:16:22.618Z,50.60
2019-01-31T10:19:28.930Z,45.40
2019-01-31T10:22:19.602Z,37.00
2019-01-31T10:25:05.636Z,40.87
2019-01-31T10:28:08.566Z,40.80
2019-01-31T10:30:59.600Z,40.67
2019-01-31T10:33:42.604Z,46.30
2019-01-31T10:36:25.832Z,65.33
2019-01-31T10:39:08.525Z,51.63
2019-01-31T10:42:05.653Z,45.50
2019-01-31T10:44:45.694Z,43.87
2019-01-31T10:47:22.472Z,37.63
2019-01-31T10:50:14.201Z,39.13
2019-01-31T10:52:48.387Z,41.03
2019-01-31T10:55:37.515Z,46.70
2019-01-31T10:58:17.201Z,45.67
2019-01-31T11:01:09.043Z,52.07
2019-01-31T11:03:46.111Z,43.80
2019-01-31T11:06:41.017Z,44.47
2019-01-31T11:09:26.811Z,47.80
2019-01-31T11:12:34.266Z,51.73
2019-01-31T11:15:25.355Z,46.50
2019-01-31T11:18:02.267Z,50.97
2019-01-31T11:20:55.968Z,60.03
2019-01-31T11:23:44.934Z,48.63
2019-01-31T11:26:22.125Z,51.60
2019-01-31T11:29:02.016Z,48.10
2019-01-31T11:32:03.205Z,53.40
2019-01-31T11:35:09.114Z,61.07
2019-01-31T11:38:02.779Z,44.53
2019-01-31T11:41:06.149Z,47.93
2019-01-31T11:44:04.588Z,49.50
2019-01-31T11:46:47.402Z,47.43
2019-01-31T11:49:30.415Z,51.77
2019-01-31T11:52:19.515Z,52.10
2019-01-31T11:55:14.549Z,51.53
2019-01-31T11:58:18.462Z,46.20
2019-01-31T12:00:47.970Z,46.40
2019-01-31T12:03:17.438Z,50.70
2019-01-31T12:05:46.905Z,54.20
2019-01-31T12:08:16.406Z,46.70
2019-01-31T12:10:45.885Z,54.07
2019-01-31T12:13:23.123Z,41.53
2019-01-31T12:15:46.603Z,52.50
2019-01-31T12:18:16.097Z,48.53
2019-01-31T12:20:45.563Z,53.43
2019-01-31T12:23:15.064Z,47.93
2019-01-31T12:25:44.546Z,51.73
2019-01-31T12:28:14.052Z,43.10
2019-01-31T12:30:43.543Z,45.40
2019-01-31T12:33:13.005Z,50.33
2019-01-31T12:35:42.480Z,49.83
2019-01-31T12:38:11.982Z,43.77
2019-01-31T12:40:41.457Z,47.10
2019-01-31T12:43:10.947Z,39.13
2019-01-31T12:45:40.432Z,44.83
2019-01-31T12:48:09.934Z,43.00
2019-01-31T12:50:39.406Z,46.57
2019-01-31T12:53:08.917Z,47.50
2019-01-31T12:55:38.438Z,43.63
2019-01-31T12:58:07.931Z,46.67
2019-01-31T13:00:37.458Z,45.90
2019-01-31T13:03:07.049Z,48.30
2019-01-31T13:05:36.561Z,47.10
2019-01-31T13:08:06.088Z,41.90
2019-01-31T13:10:35.551Z,38.70
2019-01-31T13:13:05.015Z,37.47
2019-01-31T13:15:34.518Z,44.60
2019-01-31T13:18:03.987Z,37.87
2019-01-31T13:20:33.456Z,40.07
2019-01-31T13:23:02.976Z,41.17
2019-01-31T13:25:32.471Z,40.13
2019-01-31T13:28:01.959Z,41.10
2019-01-31T13:30:31.461Z,43.30
2019-01-31T13:33:00.938Z,36.80
2019-01-31T13:35:30.460Z,35.20
2019-01-31T13:37:59.979Z,40.53
2019-01-31T13:40:29.452Z,47.77
2019-01-31T13:42:59.955Z,45.50
2019-01-31T13:45:36.376Z,42.17
2019-01-31T13:48:08.940Z,41.90
2019-01-31T13:50:38.418Z,41.63
2019-01-31T13:53:08.581Z,37.93
2019-01-31T13:55:37.998Z,33.83
2019-01-31T13:58:10.121Z,40.73
2019-01-31T14:00:38.667Z,38.50
2019-01-31T14:03:08.286Z,35.50
2019-01-31T14:05:37.829Z,40.30
2019-01-31T14:08:07.311Z,36.63
2019-01-31T14:10:37.399Z,35.33
2019-01-31T14:13:07.072Z,31.87
2019-01-31T14:15:36.735Z,38.13
2019-01-31T14:18:06.454Z,31.57
2019-01-31T14:20:36.611Z,34.00
2019-01-31T14:23:06.186Z,34.23
2019-01-31T14:25:35.738Z,31.60
2019-01-31T14:28:05.209Z,39.23
2019-01-31T14:30:37.555Z,35.33
2019-01-31T14:33:09.729Z,34.67
2019-01-31T14:35:39.194Z,30.20
2019-01-31T14:38:08.675Z,33.90
2019-01-31T14:40:38.173Z,28.60
2019-01-31T14:43:07.644Z,27.97
2019-01-31T14:45:37.112Z,34.40
2019-01-31T14:48:06.915Z,43.40
2019-01-31T14:50:36.884Z,34.97
2019-01-31T14:53:06.840Z,32.10
2019-01-31T14:55:36.339Z,34.03
2019-01-31T14:58:07.447Z,37.00
2019-01-31T15:00:36.921Z,50.07
2019-01-31T15:03:06.509Z,61.97
2019-01-31T15:05:36.852Z,46.33
2019-01-31T15:08:06.626Z,35.67
2019-01-31T15:10:36.139Z,35.40
2019-01-31T15:13:05.610Z,39.50
2019-01-31T15:15:35.097Z,31.13
2019-01-31T15:18:06.409Z,32.43
2019-01-31T15:20:40.348Z,38.30
2019-01-31T15:23:09.901Z,29.80
2019-01-31T15:25:39.470Z,31.10
2019-01-31T15:28:09.000Z,29.33
2019-01-31T15:30:38.715Z,36.13
2019-01-31T15:33:11.534Z,34.90
2019-01-31T15:35:41.208Z,35.60
2019-01-31T15:38:10.689Z,33.57
2019-01-31T15:40:45.932Z,33.23
2019-01-31T15:43:15.402Z,38.00
2019-01-31T15:45:44.986Z,36.50
2019-01-31T15:48:14.903Z,33.77
2019-01-31T15:50:44.363Z,34.30
2019-01-31T15:53:13.956Z,33.80
2019-01-31T15:55:43.419Z,33.03
2019-01-31T15:58:12.890Z,38.43
2019-01-31T16:00:46.680Z,37.17
2019-01-31T16:03:18.679Z,39.53
2019-01-31T16:05:48.147Z,35.20
2019-01-31T16:08:17.615Z,43.13
2019-01-31T16:10:47.119Z,39.90
2019-01-31T16:13:16.688Z,42.37
2019-01-31T16:15:46.373Z,43.53
2019-01-31T16:18:15.910Z,44.67
2019-01-31T16:20:45.397Z,39.57
2019-01-31T16:23:14.894Z,40.40
2019-01-31T16:25:47.483Z,49.40
2019-01-31T16:28:15.595Z,43.13
2019-01-31T16:30:45.078Z,44.27
2019-01-31T16:33:14.604Z,48.57
2019-01-31T16:35:44.091Z,47.80
2019-01-31T16:38:13.553Z,47.97
2019-01-31T16:40:43.572Z,55.03
2019-01-31T16:43:13.052Z,49.43
2019-01-31T16:45:42.546Z,51.50
2019-01-31T16:48:12.028Z,50.50
2019-01-31T16:50:41.895Z,52.03
2019-01-31T16:53:11.400Z,56.37
2019-01-31T16:55:40.884Z,53.20
2019-01-31T16:58:10.379Z,45.80
2019-01-31T17:00:39.884Z,51.60
2019-01-31T17:03:09.394Z,48.30
2019-01-31T17:05:38.955Z,48.50
2019-01-31T17:08:08.532Z,55.37
2019-01-31T17:10:38.098Z,56.87
2019-01-31T17:13:08.390Z,54.97
2019-01-31T17:15:37.894Z,55.87
2019-01-31T17:18:07.394Z,66.53
2019-01-31T17:20:40.563Z,58.90
2019-01-31T17:23:10.081Z,60.07
2019-01-31T17:25:39.548Z,60.07
2019-01-31T17:28:09.211Z,56.90
2019-01-31T17:30:38.764Z,57.23
2019-01-31T17:33:08.233Z,61.53
2019-01-31T17:35:37.725Z,62.40
2019-01-31T17:38:07.425Z,52.60
2019-01-31T17:40:38.482Z,48.30
2019-01-31T17:43:08.859Z,47.70
2019-01-31T17:45:38.364Z,54.07
2019-01-31T17:48:07.947Z,55.63
2019-01-31T17:50:37.573Z,45.57
2019-01-31T17:53:07.104Z,44.70
2019-01-31T17:55:36.648Z,47.13
2019-01-31T17:58:06.559Z,51.57
2019-01-31T18:00:42.412Z,55.73
2019-01-31T18:03:12.062Z,50.50
2019-01-31T18:05:41.563Z,46.10
2019-01-31T18:08:11.028Z,55.23
2019-01-31T18:10:40.544Z,55.20
2019-01-31T18:13:09.990Z,54.63
2019-01-31T18:15:42.234Z,52.30
2019-01-31T18:18:10.722Z,51.63
2019-01-31T18:20:40.228Z,59.10
2019-01-31T18:23:09.696Z,57.70
2019-01-31T18:25:39.220Z,56.13
2019-01-31T18:28:08.684Z,57.70
2019-01-31T18:30:39.076Z,61.63
2019-01-31T18:33:08.639Z,59.53
2019-01-31T18:35:38.125Z,55.97
2019-01-31T18:38:07.683Z,55.80
2019-01-31T18:40:37.600Z,65.53
2019-01-31T18:43:07.076Z,58.03
2019-01-31T18:45:37.035Z,119.10
2019-01-31T18:48:07.249Z,80.37
2019-01-31T18:50:41.581Z,60.10
2019-01-31T18:53:11.073Z,64.10
2019-01-31T18:55:40.582Z,65.97
2019-01-31T18:58:10.083Z,60.87
2019-01-31T19:00:45.488Z,60.07
2019-01-31T19:03:14.968Z,61.30
2019-01-31T19:05:44.516Z,61.57
2019-01-31T19:08:14.053Z,65.37
2019-01-31T19:10:43.940Z,67.70
2019-01-31T19:13:13.690Z,74.30
2019-01-31T19:15:43.198Z,74.33
2019-01-31T19:18:12.688Z,65.70
2019-01-31T19:20:42.257Z,71.40
2019-01-31T19:23:11.753Z,60.87
2019-01-31T19:25:41.326Z,66.73
2019-01-31T19:28:13.159Z,61.50
2019-01-31T19:30:42.491Z,68.43
2019-01-31T19:33:12.034Z,59.30
2019-01-31T19:35:41.522Z,64.40
2019-01-31T19:38:11.075Z,71.30
2019-01-31T19:40:43.664Z,66.27
2019-01-31T19:43:13.164Z,64.47
2019-01-31T19:45:45.768Z,65.13
2019-01-31T19:48:15.534Z,69.10
2019-01-31T19:50:45.064Z,61.53
2019-01-31T19:53:14.524Z,65.77
2019-01-31T19:55:44.134Z,56.20
2019-01-31T19:58:13.812Z,68.20
2019-01-31T20:00:43.376Z,66.60
2019-01-31T20:03:13.659Z,61.50
2019-01-31T20:05:43.306Z,56.40
2019-01-31T20:08:12.885Z,63.67
2019-01-31T20:10:42.385Z,68.73
2019-01-31T20:13:11.873Z,58.80
2019-01-31T20:15:41.894Z,61.77
2019-01-31T20:18:11.371Z,65.30
2019-01-31T20:20:42.849Z,63.87
2019-01-31T20:23:12.732Z,64.17
2019-01-31T20:25:42.254Z,73.07
2019-01-31T20:28:12.147Z,78.87
2019-01-31T20:30:44.759Z,84.13
2019-01-31T20:33:15.036Z,63.47
2019-01-31T20:35:44.525Z,72.90
2019-01-31T20:38:14.462Z,71.47
2019-01-31T20:40:44.092Z,60.17
2019-01-31T20:43:13.627Z,59.63
2019-01-31T20:45:43.116Z,63.70
2019-01-31T20:48:12.606Z,62.43
2019-01-31T20:50:42.040Z,60.90
2019-01-31T20:53:11.439Z,61.30
2019-01-31T20:55:40.959Z,55.60
2019-01-31T20:58:10.432Z,57.00
2019-01-31T21:00:42.498Z,83.73
2019-01-31T21:03:12.239Z,60.17
2019-01-31T21:05:41.818Z,59.83
2019-01-31T21:08:11.617Z,53.40
2019-01-31T21:10:41.062Z,52.10
2019-01-31T21:13:10.557Z,58.90
2019-01-31T21:15:40.054Z,55.80
2019-01-31T21:18:09.578Z,57.90
2019-01-31T21:20:39.059Z,53.80
2019-01-31T21:23:08.733Z,56.13
2019-01-31T21:25:38.251Z,56.53
2019-01-31T21:28:07.726Z,54.27
2019-01-31T21:30:39.407Z,51.03
2019-01-31T21:33:08.914Z,51.17
2019-01-31T21:35:38.374Z,48.10
2019-01-31T21:38:07.847Z,45.97
2019-01-31T21:40:37.462Z,47.23
2019-01-31T21:43:06.961Z,52.53
2019-01-31T21:45:36.437Z,53.00
2019-01-31T21:48:06.572Z,47.27
2019-01-31T21:50:36.050Z,40.87
2019-01-31T21:53:05.520Z,40.47
2019-01-31T21:55:35.031Z,51.43
2019-01-31T21:58:06.427Z,39.13
2019-01-31T22:00:36.511Z,47.40
2019-01-31T22:03:06.618Z,45.00
2019-01-31T22:05:36.081Z,49.60
2019-01-31T22:08:05.596Z,55.40
2019-01-31T22:10:35.095Z,54.37
2019-01-31T22:13:04.570Z,55.17
2019-01-31T22:15:35.901Z,48.67
2019-01-31T22:18:05.904Z,44.23
2019-01-31T22:20:35.381Z,43.33
2019-01-31T22:23:04.976Z,46.03
2019-01-31T22:25:34.476Z,48.40
2019-01-31T22:28:04.152Z,56.93
2019-01-31T22:30:36.654Z,56.37
2019-01-31T22:33:07.083Z,45.60
2019-01-31T22:35:36.570Z,41.60
2019-01-31T22:38:06.561Z,42.67
2019-01-31T22:40:36.036Z,47.20
2019-01-31T22:43:05.603Z,47.87
2019-01-31T22:45:36.786Z,41.10
2019-01-31T22:48:06.258Z,47.10
2019-01-31T22:50:35.877Z,43.07
2019-01-31T22:53:05.367Z,38.17
2019-01-31T22:55:34.842Z,40.03
2019-01-31T22:58:04.562Z,39.90
2019-01-31T23:00:52.335Z,40.77
2019-01-31T23:03:21.821Z,43.23
2019-01-31T23:05:51.400Z,35.10
2019-01-31T23:08:20.873Z,43.10
2019-01-31T23:10:50.392Z,36.57
2019-01-31T23:13:19.850Z,40.10
2019-01-31T23:15:49.315Z,48.50
2019-01-31T23:18:18.825Z,42.40
2019-01-31T23:20:48.402Z,41.70
2019-01-31T23:23:17.928Z,43.70
2019-01-31T23:25:47.412Z,33.63
2019-01-31T23:28:16.943Z,35.07
2019-01-31T23:30:46.466Z,37.40
2019-01-31T23:33:15.939Z,38.43
2019-01-31T23:35:45.411Z,38.60
2019-01-31T23:38:15.014Z,37.40
2019-01-31T23:40:44.492Z,44.23
2019-01-31T23:43:14.256Z,36.00
2019-01-31T23:45:43.817Z,35.07
2019-01-31T23:48:13.313Z,36.83
2019-01-31T23:50:42.783Z,39.20
2019-01-31T23:53:12.785Z,34.73
2019-01-31T23:55:42.253Z,44.43
2019-01-31T23:58:11.721Z,38.57
